sensor_id;sensor_type;location;lat;lon;timestamp;pressure;altitude;pressure_sealevel;temperature;humidity
59106;BME280;44891;50.204;8.132;2023-02-04T00:00:08;99486.63;;;6.75;82.61
59106;BME280;44891;50.204;8.132;2023-02-04T00:04:12;99484.78;;;6.90;82.16
59106;BME280;44891;50.204;8.132;2023-02-04T00:08:14;99477.50;;;6.86;82.25
59106;BME280;44891;50.204;8.132;2023-02-04T00:12:16;99480.38;;;6.91;81.28
59106;BME280;44891;50.204;8.132;2023-02-04T00:16:19;99492.34;;;6.85;81.03
59106;BME280;44891;50.204;8.132;2023-02-04T00:20:21;99486.31;;;6.85;80.57
59106;BME280;44891;50.204;8.132;2023-02-04T00:24:23;99486.25;;;6.78;81.18
59106;BME280;44891;50.204;8.132;2023-02-04T00:28:25;99493.44;;;6.76;81.00
59106;BME280;44891;50.204;8.132;2023-02-04T00:32:29;99488.94;;;6.70;81.52
59106;BME280;44891;50.204;8.132;2023-02-04T00:36:31;99503.44;;;6.72;80.63
59106;BME280;44891;50.204;8.132;2023-02-04T00:40:33;99498.59;;;6.69;81.57
59106;BME280;44891;50.204;8.132;2023-02-04T00:44:35;99510.94;;;6.61;82.16
59106;BME280;44891;50.204;8.132;2023-02-04T00:48:38;99503.72;;;6.63;82.40
59106;BME280;44891;50.204;8.132;2023-02-04T00:52:40;99509.13;;;6.61;81.89
59106;BME280;44891;50.204;8.132;2023-02-04T00:56:42;99516.41;;;6.51;82.63
59106;BME280;44891;50.204;8.132;2023-02-04T01:00:44;99518.41;;;6.49;82.59
59106;BME280;44891;50.204;8.132;2023-02-04T01:04:47;99529.44;;;6.36;83.80
59106;BME280;44891;50.204;8.132;2023-02-04T01:08:51;99525.66;;;6.39;83.65
59106;BME280;44891;50.204;8.132;2023-02-04T01:12:53;99523.16;;;6.45;83.14
59106;BME280;44891;50.204;8.132;2023-02-04T01:16:55;99529.28;;;6.52;82.82
59106;BME280;44891;50.204;8.132;2023-02-04T01:20:59;99550.53;;;6.49;83.44
59106;BME280;44891;50.204;8.132;2023-02-04T01:25:00;99547.72;;;6.51;83.24
59106;BME280;44891;50.204;8.132;2023-02-04T01:29:14;99571.84;;;6.53;83.27
59106;BME280;44891;50.204;8.132;2023-02-04T01:33:16;99563.56;;;6.49;82.97
59106;BME280;44891;50.204;8.132;2023-02-04T01:37:19;99569.50;;;6.43;83.06
59106;BME280;44891;50.204;8.132;2023-02-04T01:41:21;99580.56;;;6.45;83.14
59106;BME280;44891;50.204;8.132;2023-02-04T01:45:23;99582.97;;;6.47;82.25
59106;BME280;44891;50.204;8.132;2023-02-04T01:49:24;99581.25;;;6.39;82.52
59106;BME280;44891;50.204;8.132;2023-02-04T01:53:28;99590.38;;;6.43;82.72
59106;BME280;44891;50.204;8.132;2023-02-04T01:57:30;99588.38;;;6.31;83.69
59106;BME280;44891;50.204;8.132;2023-02-04T02:01:35;99580.81;;;6.36;83.37
59106;BME280;44891;50.204;8.132;2023-02-04T02:05:38;99531.72;;;6.02;83.58
59106;BME280;44891;50.204;8.132;2023-02-04T02:09:42;99585.06;;;6.37;82.87
59106;BME280;44891;50.204;8.132;2023-02-04T02:13:44;99599.31;;;6.26;84.50
59106;BME280;44891;50.204;8.132;2023-02-04T02:17:46;99609.50;;;6.21;84.26
59106;BME280;44891;50.204;8.132;2023-02-04T02:21:50;99605.19;;;6.28;83.86
59106;BME280;44891;50.204;8.132;2023-02-04T02:25:56;99604.19;;;6.29;83.79
59106;BME280;44891;50.204;8.132;2023-02-04T02:29:58;99606.00;;;6.29;83.56
59106;BME280;44891;50.204;8.132;2023-02-04T02:33:59;99604.09;;;6.22;83.71
59106;BME280;44891;50.204;8.132;2023-02-04T02:38:01;99616.97;;;6.24;83.04
59106;BME280;44891;50.204;8.132;2023-02-04T02:42:04;99625.38;;;6.11;84.60
59106;BME280;44891;50.204;8.132;2023-02-04T02:46:07;99625.16;;;6.21;82.70
59106;BME280;44891;50.204;8.132;2023-02-04T02:50:09;99632.31;;;6.19;82.89
59106;BME280;44891;50.204;8.132;2023-02-04T02:54:17;99625.47;;;6.18;83.25
59106;BME280;44891;50.204;8.132;2023-02-04T02:58:23;99623.69;;;6.18;82.91
59106;BME280;44891;50.204;8.132;2023-02-04T03:02:26;99629.78;;;6.11;83.10
59106;BME280;44891;50.204;8.132;2023-02-04T03:06:28;99637.31;;;6.06;83.51
59106;BME280;44891;50.204;8.132;2023-02-04T03:10:31;99641.19;;;6.10;83.37
59106;BME280;44891;50.204;8.132;2023-02-04T03:14:34;99647.41;;;6.09;83.80
59106;BME280;44891;50.204;8.132;2023-02-04T03:18:38;99643.28;;;6.14;83.58
59106;BME280;44891;50.204;8.132;2023-02-04T03:22:40;99646.06;;;6.13;83.06
59106;BME280;44891;50.204;8.132;2023-02-04T03:26:42;99641.53;;;6.07;82.08
59106;BME280;44891;50.204;8.132;2023-02-04T03:30:47;99640.91;;;6.05;82.29
59106;BME280;44891;50.204;8.132;2023-02-04T03:34:55;99651.97;;;6.07;83.00
59106;BME280;44891;50.204;8.132;2023-02-04T03:38:57;99652.63;;;6.09;82.99
59106;BME280;44891;50.204;8.132;2023-02-04T03:42:58;99654.06;;;6.11;83.23
59106;BME280;44891;50.204;8.132;2023-02-04T03:47:01;99659.16;;;6.05;83.62
59106;BME280;44891;50.204;8.132;2023-02-04T03:51:04;99659.78;;;6.07;83.77
59106;BME280;44891;50.204;8.132;2023-02-04T03:55:06;99668.59;;;6.06;83.57
59106;BME280;44891;50.204;8.132;2023-02-04T03:59:07;99673.81;;;6.06;83.31
59106;BME280;44891;50.204;8.132;2023-02-04T04:03:11;99688.69;;;5.97;83.66
59106;BME280;44891;50.204;8.132;2023-02-04T04:07:13;99694.38;;;6.00;83.62
59106;BME280;44891;50.204;8.132;2023-02-04T04:11:14;99704.81;;;6.00;83.83
59106;BME280;44891;50.204;8.132;2023-02-04T04:15:16;99713.97;;;5.96;83.94
59106;BME280;44891;50.204;8.132;2023-02-04T04:19:20;99718.88;;;5.91;84.74
59106;BME280;44891;50.204;8.132;2023-02-04T04:23:21;99710.38;;;5.97;84.17
59106;BME280;44891;50.204;8.132;2023-02-04T04:27:23;99702.25;;;5.92;84.48
59106;BME280;44891;50.204;8.132;2023-02-04T04:31:25;99705.78;;;5.99;84.23
59106;BME280;44891;50.204;8.132;2023-02-04T04:35:28;99709.38;;;5.98;84.29
59106;BME280;44891;50.204;8.132;2023-02-04T04:39:30;99723.78;;;5.94;83.97
59106;BME280;44891;50.204;8.132;2023-02-04T04:43:32;99713.97;;;5.96;84.25
59106;BME280;44891;50.204;8.132;2023-02-04T04:47:34;99715.78;;;5.96;84.40
59106;BME280;44891;50.204;8.132;2023-02-04T04:51:37;99718.81;;;6.08;83.68
59106;BME280;44891;50.204;8.132;2023-02-04T04:55:39;99725.66;;;6.00;83.64
59106;BME280;44891;50.204;8.132;2023-02-04T04:59:41;99733.63;;;6.07;83.99
59106;BME280;44891;50.204;8.132;2023-02-04T05:03:43;99720.00;;;5.89;85.13
59106;BME280;44891;50.204;8.132;2023-02-04T05:07:46;99731.44;;;5.88;84.22
59106;BME280;44891;50.204;8.132;2023-02-04T05:11:48;99736.78;;;5.86;85.15
59106;BME280;44891;50.204;8.132;2023-02-04T05:15:50;99726.75;;;5.75;85.76
59106;BME280;44891;50.204;8.132;2023-02-04T05:19:51;99737.66;;;5.79;85.41
59106;BME280;44891;50.204;8.132;2023-02-04T05:23:55;99738.59;;;5.86;85.25
59106;BME280;44891;50.204;8.132;2023-02-04T05:27:56;99733.72;;;5.83;84.86
59106;BME280;44891;50.204;8.132;2023-02-04T05:31:58;99734.84;;;5.80;85.42
59106;BME280;44891;50.204;8.132;2023-02-04T05:36:00;99756.38;;;5.82;84.96
59106;BME280;44891;50.204;8.132;2023-02-04T05:40:03;99768.13;;;5.78;85.48
59106;BME280;44891;50.204;8.132;2023-02-04T05:44:05;99760.03;;;5.65;85.98
59106;BME280;44891;50.204;8.132;2023-02-04T05:48:07;99769.13;;;5.61;86.76
59106;BME280;44891;50.204;8.132;2023-02-04T05:52:09;99781.88;;;5.56;87.24
59106;BME280;44891;50.204;8.132;2023-02-04T05:56:12;99786.75;;;5.59;87.82
59106;BME280;44891;50.204;8.132;2023-02-04T06:00:14;99787.88;;;5.64;87.91
59106;BME280;44891;50.204;8.132;2023-02-04T06:04:16;99785.06;;;5.74;87.07
59106;BME280;44891;50.204;8.132;2023-02-04T06:08:18;99788.38;;;5.68;87.58
59106;BME280;44891;50.204;8.132;2023-02-04T06:12:21;99796.66;;;5.71;87.49
59106;BME280;44891;50.204;8.132;2023-02-04T06:16:23;99797.31;;;5.65;88.05
59106;BME280;44891;50.204;8.132;2023-02-04T06:20:25;99797.16;;;5.67;88.14
59106;BME280;44891;50.204;8.132;2023-02-04T06:24:26;99796.81;;;5.70;88.20
59106;BME280;44891;50.204;8.132;2023-02-04T06:28:30;99803.34;;;5.66;88.73
59106;BME280;44891;50.204;8.132;2023-02-04T06:32:32;99811.13;;;5.74;88.46
59106;BME280;44891;50.204;8.132;2023-02-04T06:36:33;99800.41;;;5.69;88.52
59106;BME280;44891;50.204;8.132;2023-02-04T06:40:35;99807.56;;;5.67;88.54
59106;BME280;44891;50.204;8.132;2023-02-04T06:44:39;99804.16;;;5.66;88.78
59106;BME280;44891;50.204;8.132;2023-02-04T06:48:41;99809.03;;;5.69;88.89
59106;BME280;44891;50.204;8.132;2023-02-04T06:52:43;99810.50;;;5.72;88.52
59106;BME280;44891;50.204;8.132;2023-02-04T06:56:45;99824.50;;;5.71;88.51
59106;BME280;44891;50.204;8.132;2023-02-04T07:00:48;99835.28;;;5.60;89.29
59106;BME280;44891;50.204;8.132;2023-02-04T07:04:50;99842.25;;;5.67;89.40
59106;BME280;44891;50.204;8.132;2023-02-04T07:08:52;99849.28;;;5.67;89.31
59106;BME280;44891;50.204;8.132;2023-02-04T07:12:54;99850.59;;;5.71;89.16
59106;BME280;44891;50.204;8.132;2023-02-04T07:16:57;99857.75;;;5.61;90.16
59106;BME280;44891;50.204;8.132;2023-02-04T07:20:59;99862.31;;;5.67;89.70
59106;BME280;44891;50.204;8.132;2023-02-04T07:25:01;99858.56;;;5.69;90.17
59106;BME280;44891;50.204;8.132;2023-02-04T07:29:02;99852.69;;;5.76;89.52
59106;BME280;44891;50.204;8.132;2023-02-04T07:33:06;99854.50;;;5.75;89.63
59106;BME280;44891;50.204;8.132;2023-02-04T07:37:07;99860.84;;;5.72;89.71
59106;BME280;44891;50.204;8.132;2023-02-04T07:41:09;99861.19;;;5.69;90.03
59106;BME280;44891;50.204;8.132;2023-02-04T07:45:11;99884.28;;;5.81;89.13
59106;BME280;44891;50.204;8.132;2023-02-04T07:49:14;99901.72;;;5.88;89.25
59106;BME280;44891;50.204;8.132;2023-02-04T07:53:16;99901.09;;;5.94;88.92
59106;BME280;44891;50.204;8.132;2023-02-04T07:57:18;99907.59;;;5.98;89.13
59106;BME280;44891;50.204;8.132;2023-02-04T08:01:20;99911.16;;;5.89;89.14
59106;BME280;44891;50.204;8.132;2023-02-04T08:05:23;99919.97;;;5.96;89.62
59106;BME280;44891;50.204;8.132;2023-02-04T08:09:25;99919.50;;;5.93;90.01
59106;BME280;44891;50.204;8.132;2023-02-04T08:13:27;99922.59;;;5.96;90.34
59106;BME280;44891;50.204;8.132;2023-02-04T08:17:29;99923.38;;;6.05;90.04
59106;BME280;44891;50.204;8.132;2023-02-04T08:21:32;99920.78;;;6.05;89.57
59106;BME280;44891;50.204;8.132;2023-02-04T08:25:34;99922.06;;;6.09;89.73
59106;BME280;44891;50.204;8.132;2023-02-04T08:29:36;99927.91;;;6.19;88.94
59106;BME280;44891;50.204;8.132;2023-02-04T08:33:38;99924.81;;;6.24;88.85
59106;BME280;44891;50.204;8.132;2023-02-04T08:37:41;99918.59;;;6.25;89.29
59106;BME280;44891;50.204;8.132;2023-02-04T08:41:43;99925.72;;;6.39;89.33
59106;BME280;44891;50.204;8.132;2023-02-04T08:45:45;99928.34;;;6.39;88.78
59106;BME280;44891;50.204;8.132;2023-02-04T08:49:48;99935.81;;;6.50;89.19
59106;BME280;44891;50.204;8.132;2023-02-04T08:53:52;99942.31;;;6.54;87.75
59106;BME280;44891;50.204;8.132;2023-02-04T08:57:53;99950.06;;;6.71;88.38
59106;BME280;44891;50.204;8.132;2023-02-04T09:01:55;99949.03;;;6.88;86.82
59106;BME280;44891;50.204;8.132;2023-02-04T09:05:57;99952.94;;;6.84;86.54
59106;BME280;44891;50.204;8.132;2023-02-04T09:10:00;99961.59;;;7.16;84.96
59106;BME280;44891;50.204;8.132;2023-02-04T09:14:02;99960.06;;;6.98;85.49
59106;BME280;44891;50.204;8.132;2023-02-04T09:18:04;99972.44;;;7.04;85.00
59106;BME280;44891;50.204;8.132;2023-02-04T09:22:14;99977.31;;;7.07;84.69
59106;BME280;44891;50.204;8.132;2023-02-04T09:26:17;99981.00;;;6.90;85.14
59106;BME280;44891;50.204;8.132;2023-02-04T09:30:19;99978.94;;;7.08;84.06
59106;BME280;44891;50.204;8.132;2023-02-04T09:34:21;99987.59;;;7.09;84.03
59106;BME280;44891;50.204;8.132;2023-02-04T09:38:22;99985.34;;;6.98;83.78
59106;BME280;44891;50.204;8.132;2023-02-04T09:42:26;99991.28;;;7.23;83.95
59106;BME280;44891;50.204;8.132;2023-02-04T09:46:29;99994.81;;;7.30;83.70
59106;BME280;44891;50.204;8.132;2023-02-04T09:50:31;99998.59;;;7.50;82.21
59106;BME280;44891;50.204;8.132;2023-02-04T09:54:34;100007.84;;;7.38;80.75
59106;BME280;44891;50.204;8.132;2023-02-04T09:58:39;100018.78;;;7.42;81.16
59106;BME280;44891;50.204;8.132;2023-02-04T10:02:41;100029.72;;;7.68;79.53
59106;BME280;44891;50.204;8.132;2023-02-04T10:06:43;100029.84;;;7.44;80.47
59106;BME280;44891;50.204;8.132;2023-02-04T10:10:46;100037.19;;;7.48;78.90
59106;BME280;44891;50.204;8.132;2023-02-04T10:14:50;100040.25;;;7.52;78.43
59106;BME280;44891;50.204;8.132;2023-02-04T10:18:52;100035.50;;;7.78;77.57
59106;BME280;44891;50.204;8.132;2023-02-04T10:22:54;100029.47;;;7.78;77.20
59106;BME280;44891;50.204;8.132;2023-02-04T10:27:05;99992.13;;;7.46;77.66
59106;BME280;44891;50.204;8.132;2023-02-04T10:35:25;100031.66;;;7.89;73.89
59106;BME280;44891;50.204;8.132;2023-02-04T10:39:28;100037.50;;;8.14;74.08
59106;BME280;44891;50.204;8.132;2023-02-04T10:43:30;100047.97;;;8.37;73.01
59106;BME280;44891;50.204;8.132;2023-02-04T10:47:32;100035.69;;;8.37;72.98
59106;BME280;44891;50.204;8.132;2023-02-04T10:51:36;100030.94;;;9.21;69.45
59106;BME280;44891;50.204;8.132;2023-02-04T10:55:38;100026.75;;;11.91;60.32
59106;BME280;44891;50.204;8.132;2023-02-04T10:59:40;100024.38;;;12.87;56.35
59106;BME280;44891;50.204;8.132;2023-02-04T11:03:42;100034.19;;;12.60;56.80
59106;BME280;44891;50.204;8.132;2023-02-04T11:07:46;100035.25;;;12.13;57.69
59106;BME280;44891;50.204;8.132;2023-02-04T11:11:49;100041.16;;;11.21;59.02
59106;BME280;44891;50.204;8.132;2023-02-04T11:16:05;100041.84;;;10.25;60.93
59106;BME280;44891;50.204;8.132;2023-02-04T11:20:14;100027.94;;;9.61;62.13
59106;BME280;44891;50.204;8.132;2023-02-04T11:24:23;100042.59;;;9.34;63.70
59106;BME280;44891;50.204;8.132;2023-02-04T11:28:25;100034.53;;;9.57;62.70
59106;BME280;44891;50.204;8.132;2023-02-04T11:32:32;100028.50;;;9.77;61.30
59106;BME280;44891;50.204;8.132;2023-02-04T11:36:37;100036.63;;;9.61;61.65
59106;BME280;44891;50.204;8.132;2023-02-04T11:40:55;100032.84;;;9.70;60.66
59106;BME280;44891;50.204;8.132;2023-02-04T11:44:58;100036.25;;;10.35;60.28
59106;BME280;44891;50.204;8.132;2023-02-04T11:49:00;100034.41;;;10.57;58.69
59106;BME280;44891;50.204;8.132;2023-02-04T11:53:02;100029.28;;;10.49;57.94
59106;BME280;44891;50.204;8.132;2023-02-04T11:57:08;100030.19;;;10.69;57.00
59106;BME280;44891;50.204;8.132;2023-02-04T12:01:17;100031.28;;;10.47;57.98
59106;BME280;44891;50.204;8.132;2023-02-04T12:05:19;100031.88;;;9.71;59.70
59106;BME280;44891;50.204;8.132;2023-02-04T12:09:24;100031.81;;;10.14;58.58
59106;BME280;44891;50.204;8.132;2023-02-04T12:13:27;100034.38;;;10.29;58.90
59106;BME280;44891;50.204;8.132;2023-02-04T12:17:29;100040.25;;;9.60;60.78
59106;BME280;44891;50.204;8.132;2023-02-04T12:21:31;100048.69;;;9.19;61.69
59106;BME280;44891;50.204;8.132;2023-02-04T12:25:33;100046.31;;;10.10;59.83
59106;BME280;44891;50.204;8.132;2023-02-04T12:29:36;100046.91;;;10.27;59.41
59106;BME280;44891;50.204;8.132;2023-02-04T12:33:38;100044.59;;;9.96;59.50
59106;BME280;44891;50.204;8.132;2023-02-04T12:37:40;100054.09;;;9.97;60.69
59106;BME280;44891;50.204;8.132;2023-02-04T12:41:42;100045.28;;;15.08;48.34
59106;BME280;44891;50.204;8.132;2023-02-04T12:45:45;100045.03;;;15.10;45.48
59106;BME280;44891;50.204;8.132;2023-02-04T12:49:49;100042.94;;;14.38;47.35
59106;BME280;44891;50.204;8.132;2023-02-04T12:53:51;100044.69;;;12.73;49.69
59106;BME280;44891;50.204;8.132;2023-02-04T12:57:53;100056.47;;;11.04;55.37
59106;BME280;44891;50.204;8.132;2023-02-04T13:01:57;100042.09;;;10.30;57.42
59106;BME280;44891;50.204;8.132;2023-02-04T13:05:58;100044.09;;;10.98;56.18
59106;BME280;44891;50.204;8.132;2023-02-04T13:10:00;100042.00;;;14.33;46.85
59106;BME280;44891;50.204;8.132;2023-02-04T13:14:02;100039.28;;;18.71;39.01
59106;BME280;44891;50.204;8.132;2023-02-04T13:18:06;100043.69;;;17.93;39.08
59106;BME280;44891;50.204;8.132;2023-02-04T13:22:08;100043.59;;;19.21;37.12
59106;BME280;44891;50.204;8.132;2023-02-04T13:26:10;100031.38;;;21.11;34.06
59106;BME280;44891;50.204;8.132;2023-02-04T13:30:12;100039.50;;;17.69;38.97
59106;BME280;44891;50.204;8.132;2023-02-04T13:34:15;100031.59;;;14.13;45.39
59106;BME280;44891;50.204;8.132;2023-02-04T13:38:17;100034.13;;;12.80;50.53
59106;BME280;44891;50.204;8.132;2023-02-04T13:42:19;100034.44;;;12.19;51.41
59106;BME280;44891;50.204;8.132;2023-02-04T13:46:21;99996.88;;;11.31;52.14
59106;BME280;44891;50.204;8.132;2023-02-04T13:50:24;100035.31;;;10.49;54.29
59106;BME280;44891;50.204;8.132;2023-02-04T13:54:26;100042.50;;;11.03;54.14
59106;BME280;44891;50.204;8.132;2023-02-04T13:58:28;100045.22;;;10.47;54.79
59106;BME280;44891;50.204;8.132;2023-02-04T14:02:30;100053.72;;;10.00;55.97
59106;BME280;44891;50.204;8.132;2023-02-04T14:06:33;100040.47;;;12.52;49.68
59106;BME280;44891;50.204;8.132;2023-02-04T14:10:37;100043.44;;;11.30;52.60
59106;BME280;44891;50.204;8.132;2023-02-04T14:14:39;100046.25;;;10.46;55.06
59106;BME280;44891;50.204;8.132;2023-02-04T14:18:41;100046.88;;;10.55;55.07
59106;BME280;44891;50.204;8.132;2023-02-04T14:22:44;100041.31;;;10.15;55.94
59106;BME280;44891;50.204;8.132;2023-02-04T14:26:46;100046.88;;;9.99;57.51
59106;BME280;44891;50.204;8.132;2023-02-04T14:30:48;100045.59;;;9.95;58.40
59106;BME280;44891;50.204;8.132;2023-02-04T14:34:50;100044.72;;;9.45;59.26
59106;BME280;44891;50.204;8.132;2023-02-04T14:38:53;100045.09;;;9.63;60.80
59106;BME280;44891;50.204;8.132;2023-02-04T14:42:55;100041.19;;;9.74;59.98
59106;BME280;44891;50.204;8.132;2023-02-04T14:46:57;100037.75;;;9.73;59.57
59106;BME280;44891;50.204;8.132;2023-02-04T14:50:59;100030.50;;;9.54;59.97
59106;BME280;44891;50.204;8.132;2023-02-04T14:55:02;100036.91;;;9.15;59.79
59106;BME280;44891;50.204;8.132;2023-02-04T14:59:04;100028.00;;;9.46;60.88
59106;BME280;44891;50.204;8.132;2023-02-04T15:03:06;100039.09;;;9.69;61.17
59106;BME280;44891;50.204;8.132;2023-02-04T15:07:07;100048.59;;;9.70;61.23
59106;BME280;44891;50.204;8.132;2023-02-04T15:11:11;100045.97;;;9.49;60.61
59106;BME280;44891;50.204;8.132;2023-02-04T15:15:12;100045.47;;;9.24;60.90
59106;BME280;44891;50.204;8.132;2023-02-04T15:19:14;100051.03;;;9.14;61.08
59106;BME280;44891;50.204;8.132;2023-02-04T15:23:16;100049.00;;;8.80;61.86
59106;BME280;44891;50.204;8.132;2023-02-04T15:27:20;100048.06;;;8.88;61.67
59106;BME280;44891;50.204;8.132;2023-02-04T15:31:22;100058.28;;;8.53;62.42
59106;BME280;44891;50.204;8.132;2023-02-04T15:35:24;100063.84;;;8.35;66.10
59106;BME280;44891;50.204;8.132;2023-02-04T15:39:26;100057.47;;;8.15;67.72
59106;BME280;44891;50.204;8.132;2023-02-04T15:43:29;100064.16;;;7.72;68.49
59106;BME280;44891;50.204;8.132;2023-02-04T15:47:31;100063.44;;;7.86;66.63
59106;BME280;44891;50.204;8.132;2023-02-04T15:51:33;100062.47;;;7.79;67.16
59106;BME280;44891;50.204;8.132;2023-02-04T15:55:35;100070.78;;;7.59;67.76
59106;BME280;44891;50.204;8.132;2023-02-04T15:59:38;100082.38;;;7.57;69.08
59106;BME280;44891;50.204;8.132;2023-02-04T16:03:40;100077.41;;;7.47;70.39
59106;BME280;44891;50.204;8.132;2023-02-04T16:07:44;100086.22;;;7.46;70.49
59106;BME280;44891;50.204;8.132;2023-02-04T16:11:45;100080.38;;;7.36;70.78
59106;BME280;44891;50.204;8.132;2023-02-04T16:15:49;100085.84;;;7.18;71.79
59106;BME280;44891;50.204;8.132;2023-02-04T16:19:50;100086.69;;;7.11;72.84
59106;BME280;44891;50.204;8.132;2023-02-04T16:23:52;100096.88;;;6.97;73.82
59106;BME280;44891;50.204;8.132;2023-02-04T16:27:54;100098.34;;;6.92;74.77
59106;BME280;44891;50.204;8.132;2023-02-04T16:31:57;100100.97;;;7.00;74.27
59106;BME280;44891;50.204;8.132;2023-02-04T16:36:00;100099.34;;;6.91;74.51
59106;BME280;44891;50.204;8.132;2023-02-04T16:40:02;100106.72;;;6.87;73.75
59106;BME280;44891;50.204;8.132;2023-02-04T16:44:04;100101.13;;;6.90;73.34
59106;BME280;44891;50.204;8.132;2023-02-04T16:48:07;100097.88;;;6.80;72.95
59106;BME280;44891;50.204;8.132;2023-02-04T16:52:09;100105.72;;;6.80;72.95
59106;BME280;44891;50.204;8.132;2023-02-04T16:56:10;100112.09;;;6.77;73.51
59106;BME280;44891;50.204;8.132;2023-02-04T17:00:13;100115.88;;;6.75;74.47
59106;BME280;44891;50.204;8.132;2023-02-04T17:04:16;100110.66;;;6.75;74.73
59106;BME280;44891;50.204;8.132;2023-02-04T17:08:18;100105.44;;;6.75;73.96
59106;BME280;44891;50.204;8.132;2023-02-04T17:12:20;100111.81;;;6.64;74.80
59106;BME280;44891;50.204;8.132;2023-02-04T17:16:22;100122.41;;;6.71;74.00
59106;BME280;44891;50.204;8.132;2023-02-04T17:20:25;100124.69;;;6.66;75.50
59106;BME280;44891;50.204;8.132;2023-02-04T17:24:27;100125.50;;;6.66;75.56
59106;BME280;44891;50.204;8.132;2023-02-04T17:28:28;100134.16;;;6.59;75.17
59106;BME280;44891;50.204;8.132;2023-02-04T17:32:30;100130.25;;;6.63;75.08
59106;BME280;44891;50.204;8.132;2023-02-04T17:36:33;100132.69;;;6.64;76.42
59106;BME280;44891;50.204;8.132;2023-02-04T17:40:35;100137.28;;;6.62;76.36
59106;BME280;44891;50.204;8.132;2023-02-04T17:44:37;100152.13;;;6.45;75.57
59106;BME280;44891;50.204;8.132;2023-02-04T17:48:39;100151.78;;;6.57;76.20
59106;BME280;44891;50.204;8.132;2023-02-04T17:52:42;100159.31;;;6.43;78.10
59106;BME280;44891;50.204;8.132;2023-02-04T17:56:44;100160.13;;;6.44;76.49
59106;BME280;44891;50.204;8.132;2023-02-04T18:00:46;100156.53;;;6.37;77.11
59106;BME280;44891;50.204;8.132;2023-02-04T18:04:48;100158.81;;;6.32;77.54
59106;BME280;44891;50.204;8.132;2023-02-04T18:08:51;100159.63;;;6.32;74.84
59106;BME280;44891;50.204;8.132;2023-02-04T18:12:56;100158.31;;;6.36;74.76
59106;BME280;44891;50.204;8.132;2023-02-04T18:16:58;100159.59;;;6.40;74.62
59106;BME280;44891;50.204;8.132;2023-02-04T18:21:01;100151.63;;;6.34;73.81
59106;BME280;44891;50.204;8.132;2023-02-04T18:25:07;100153.41;;;6.33;74.16
59106;BME280;44891;50.204;8.132;2023-02-04T18:29:17;100050.97;;;5.66;74.13
59106;BME280;44891;50.204;8.132;2023-02-04T18:33:22;100159.31;;;6.35;76.77
59106;BME280;44891;50.204;8.132;2023-02-04T18:37:26;100165.19;;;6.21;76.88
59106;BME280;44891;50.204;8.132;2023-02-04T18:41:30;100171.84;;;6.23;74.41
59106;BME280;44891;50.204;8.132;2023-02-04T18:45:33;100166.47;;;6.33;75.05
59106;BME280;44891;50.204;8.132;2023-02-04T18:49:36;100165.66;;;6.33;75.06
59106;BME280;44891;50.204;8.132;2023-02-04T18:53:39;100164.84;;;6.32;75.07
59106;BME280;44891;50.204;8.132;2023-02-04T18:57:42;100156.84;;;6.34;74.34
59106;BME280;44891;50.204;8.132;2023-02-04T19:01:44;100171.50;;;6.18;74.75
59106;BME280;44891;50.204;8.132;2023-02-04T19:05:47;100162.56;;;6.29;74.41
59106;BME280;44891;50.204;8.132;2023-02-04T19:09:49;100163.84;;;6.25;74.04
59106;BME280;44891;50.204;8.132;2023-02-04T19:13:52;100148.16;;;6.00;75.03
59106;BME280;44891;50.204;8.132;2023-02-04T19:17:56;100144.78;;;6.16;73.88
59106;BME280;44891;50.204;8.132;2023-02-04T19:21:59;100126.66;;;5.98;73.73
59106;BME280;44891;50.204;8.132;2023-02-04T19:26:01;100142.00;;;6.02;73.36
59106;BME280;44891;50.204;8.132;2023-02-04T19:30:17;100145.25;;;5.95;73.57
59106;BME280;44891;50.204;8.132;2023-02-04T19:34:36;100143.94;;;5.91;74.17
59106;BME280;44891;50.204;8.132;2023-02-04T19:38:39;100150.09;;;5.90;74.06
59106;BME280;44891;50.204;8.132;2023-02-04T19:42:41;100150.88;;;5.83;73.50
59106;BME280;44891;50.204;8.132;2023-02-04T19:46:46;100168.63;;;5.79;73.03
59106;BME280;44891;50.204;8.132;2023-02-04T19:50:49;100163.06;;;5.74;73.36
59106;BME280;44891;50.204;8.132;2023-02-04T19:54:52;100172.22;;;5.78;75.84
59106;BME280;44891;50.204;8.132;2023-02-04T19:58:54;100178.03;;;5.64;76.33
59106;BME280;44891;50.204;8.132;2023-02-04T20:02:58;100172.00;;;5.55;77.79
59106;BME280;44891;50.204;8.132;2023-02-04T20:07:00;100176.50;;;5.45;77.94
59106;BME280;44891;50.204;8.132;2023-02-04T20:11:05;100184.59;;;5.34;78.46
59106;BME280;44891;50.204;8.132;2023-02-04T20:15:15;100181.97;;;5.34;78.72
59106;BME280;44891;50.204;8.132;2023-02-04T20:19:19;100187.16;;;5.26;78.70
59106;BME280;44891;50.204;8.132;2023-02-04T20:23:22;100191.59;;;5.33;79.05
59106;BME280;44891;50.204;8.132;2023-02-04T20:27:27;100195.75;;;5.18;81.28
59106;BME280;44891;50.204;8.132;2023-02-04T20:31:29;100185.22;;;5.02;82.33
59106;BME280;44891;50.204;8.132;2023-02-04T20:40:16;100191.28;;;5.02;82.15
59106;BME280;44891;50.204;8.132;2023-02-04T20:44:21;100198.66;;;5.15;80.45
59106;BME280;44891;50.204;8.132;2023-02-04T20:48:25;100191.31;;;5.10;81.69
59106;BME280;44891;50.204;8.132;2023-02-04T20:56:51;100195.94;;;4.99;82.64
59106;BME280;44891;50.204;8.132;2023-02-04T21:00:54;100202.38;;;5.12;82.26
59106;BME280;44891;50.204;8.132;2023-02-04T21:04:56;100193.72;;;5.04;82.23
59106;BME280;44891;50.204;8.132;2023-02-04T21:09:01;100191.28;;;5.02;81.02
59106;BME280;44891;50.204;8.132;2023-02-04T21:13:05;100198.72;;;4.97;80.71
59106;BME280;44891;50.204;8.132;2023-02-04T21:17:07;100188.59;;;4.94;80.89
59106;BME280;44891;50.204;8.132;2023-02-04T21:21:09;100186.16;;;4.93;80.88
59106;BME280;44891;50.204;8.132;2023-02-04T21:25:11;100188.53;;;4.86;81.71
59106;BME280;44891;50.204;8.132;2023-02-04T21:29:14;100205.31;;;4.83;81.74
59106;BME280;44891;50.204;8.132;2023-02-04T21:33:16;100198.69;;;4.71;81.17
59106;BME280;44891;50.204;8.132;2023-02-04T21:37:17;100191.28;;;4.41;81.80
59106;BME280;44891;50.204;8.132;2023-02-04T21:41:19;100187.13;;;4.30;82.24
59106;BME280;44891;50.204;8.132;2023-02-04T21:45:23;100186.66;;;4.34;81.93